Terminal Aerodrome Forecast
Issued by NWS Duluth, MN

Home | Current Version | Previous Version | Text Only | Print | Product List | Glossary On
Versions: 1 2 3 4 5 6 7 8 9 10 11 12 13 14 15 16 17 18 19 20 21 22 23 24 25
338
FTUS43 KDLH 191124
TAFDLH
TAF
KDLH 191124Z 1912/2012 21007KT 1/4SM FG VV002
      TEMPO 1912/1914 2SM BR BKN004
     FM191400 20008KT 4SM BR OVC007
     FM200100 19007KT 1/2SM FG OVC006
     FM200500 19006KT 1/4SM FZFG VV002=

USA.gov is the U.S. government's official web portal to all federal, state and local government web resources and services.